Flugplatz Lübeck Blankensee

Bericht für EDHL

vom 20.10. um 18:50 UTC

Wind 4 kt aus 40°

Sichtweite 7000 m

schwacher Regen

aufgebrochene Bewölkung in 1800 ft

Temperatur 11.0°C

Taupunkt 10.0°C

Luftfeuchtigkeit 94%

Luftdruck 1013 hPa

EDHL 201850Z 04004KT 7000 -RA BKN018 11/10 Q1013

Prognose für EDHL

vom 20.10. um 00:00 UTC

Zwischen 00:00 UTC und 00:00 UTC

Wind 4 kt aus 50°

Sichtweite 8000 m

aufgelockert bewölkt in 2000 ft


Zwischen 00:00 UTC und 00:00 UTC zeitweise mit einer Wahrscheinlichkeit von 30%

aufgebrochene Bewölkung in 900 ft

TAF EDHL 201700Z 2018/2021 05004KT 8000 SCT020 PROB30 TEMPO 2018/2021 BKN009
Impressum